Time;durP1;ratioP1;P1;durP2;ratioP2;P2;SDS_P1;SDS_P2;PMS_P1;PMS_P2;Temp;Humidity;BMP_temperature;BMP_pressure;BME280_temperature;BME280_humidity;BME280_pressure;Samples;Min_cycle;Max_cycle;Signal;HPM_P1;HPM_P2
2021/10/15 00:01:03;;;;;;;;;22.50;20.25;;;;;10.39;63.03;101275.09;5039036;28;45601;-60
2021/10/15 00:03:28;;;;;;;;;29.00;23.00;;;;;10.38;62.92;101276.81;5057210;28;45414;-60
2021/10/15 00:05:53;;;;;;;;;24.75;23.75;;;;;10.37;63.04;101269.06;5038450;28;45637;-60
2021/10/15 00:08:19;;;;;;;;;27.50;23.25;;;;;10.37;63.08;101271.69;5056862;28;53483;-60
2021/10/15 00:10:44;;;;;;;;;26.25;22.75;;;;;10.33;62.87;101270.25;5056964;28;45443;-60
2021/10/15 00:13:10;;;;;;;;;25.75;23.50;;;;;10.29;62.89;101272.28;5056317;28;62348;-60
2021/10/15 00:15:35;;;;;;;;;24.75;22.25;;;;;10.27;62.64;101268.09;5056255;28;51525;-60
2021/10/15 00:18:00;;;;;;;;;29.00;22.00;;;;;10.23;62.97;101278.81;5056445;28;55915;-60
2021/10/15 00:20:26;;;;;;;;;27.00;23.00;;;;;10.22;63.23;101271.06;5055617;28;73429;-60
2021/10/15 00:22:51;;;;;;;;;26.00;22.25;;;;;10.21;63.16;101267.59;5038502;28;45494;-60
2021/10/15 00:25:16;;;;;;;;;25.50;23.50;;;;;10.22;63.34;101265.81;5055880;28;66752;-60
2021/10/15 00:27:42;;;;;;;;;27.50;20.00;;;;;10.21;63.84;101266.78;5055893;28;61714;-60
2021/10/15 00:30:08;;;;;;;;;24.25;21.50;;;;;10.19;63.54;101266.06;5038174;28;62996;-60
2021/10/15 00:32:33;;;;;;;;;25.25;23.50;;;;;10.17;63.50;101266.16;5056445;28;45300;-60
2021/10/15 00:34:58;;;;;;;;;27.75;23.00;;;;;10.14;63.18;101262.94;5056708;28;45245;-59
2021/10/15 00:37:24;;;;;;;;;25.00;22.50;;;;;10.12;63.12;101265.66;5055822;28;65172;-60
2021/10/15 00:39:49;;;;;;;;;24.25;21.75;;;;;10.10;63.04;101267.56;5056457;28;45423;-60
2021/10/15 00:42:15;;;;;;;;;23.25;20.50;;;;;10.12;63.39;101264.84;5055658;28;66916;-60
2021/10/15 00:44:40;;;;;;;;;25.50;20.75;;;;;10.09;63.33;101260.63;5038571;28;45826;-60
2021/10/15 00:47:05;;;;;;;;;22.00;19.50;;;;;10.09;63.34;101265.88;5038600;28;45225;-59
2021/10/15 00:49:31;;;;;;;;;25.00;20.50;;;;;10.07;63.17;101259.91;5037527;28;68309;-60
2021/10/15 00:51:56;;;;;;;;;25.75;20.50;;;;;10.06;63.32;101256.47;5056253;28;45182;-60
2021/10/15 00:54:22;;;;;;;;;22.75;21.50;;;;;10.05;63.44;101256.59;5038017;28;56063;-60
2021/10/15 00:56:47;;;;;;;;;21.00;19.00;;;;;10.05;63.39;101257.41;5056302;28;45605;-60
2021/10/15 00:59:13;;;;;;;;;22.75;20.75;;;;;10.05;63.45;101248.72;5020784;28;67504;-60
2021/10/15 01:01:39;;;;;;;;;23.25;18.25;;;;;10.05;63.81;101259.22;5038199;28;46160;-60
2021/10/15 01:04:04;;;;;;;;;20.50;20.50;;;;;10.04;63.39;101247.88;5056487;28;45371;-60
2021/10/15 01:06:30;;;;;;;;;21.25;19.25;;;;;10.03;63.16;101242.75;5055336;28;64550;-60
2021/10/15 01:08:56;;;;;;;;;26.50;22.75;;;;;10.04;63.25;101252.28;5037486;28;45444;-60
2021/10/15 01:11:21;;;;;;;;;21.25;19.25;;;;;9.99;63.17;101239.50;5055421;28;66352;-60
2021/10/15 01:13:47;;;;;;;;;24.75;21.75;;;;;9.99;63.16;101238.66;5055852;28;50484;-60
2021/10/15 01:16:13;;;;;;;;;26.25;21.00;;;;;9.97;63.32;101236.16;5038121;28;45412;-60
2021/10/15 01:18:39;;;;;;;;;25.00;22.00;;;;;9.99;63.50;101233.41;5055967;28;46460;-60
2021/10/15 01:21:06;;;;;;;;;24.25;20.00;;;;;9.99;63.61;101233.41;5037825;28;46632;-60
2021/10/15 01:23:31;;;;;;;;;25.50;20.50;;;;;9.97;63.48;101233.53;5038074;28;45386;-60
2021/10/15 01:25:57;;;;;;;;;22.50;19.75;;;;;9.97;63.28;101230.88;5055188;28;67088;-60
2021/10/15 01:28:23;;;;;;;;;22.75;20.25;;;;;9.97;63.58;101232.69;5057641;28;71083;-60
2021/10/15 01:30:48;;;;;;;;;23.25;21.50;;;;;9.97;63.71;101225.63;5059481;28;45309;-60
2021/10/15 01:33:14;;;;;;;;;25.75;23.50;;;;;9.97;63.95;101230.06;5058695;28;65518;-60
2021/10/15 01:35:39;;;;;;;;;24.75;20.75;;;;;9.95;63.84;101225.78;5024179;28;61785;-59
2021/10/15 01:38:05;;;;;;;;;22.00;21.50;;;;;9.93;63.92;101219.81;5059334;28;45410;-60
2021/10/15 01:40:30;;;;;;;;;25.25;21.00;;;;;9.89;63.49;101212.25;5040217;28;73249;-60
2021/10/15 01:42:56;;;;;;;;;23.50;19.75;;;;;9.86;63.56;101218.56;5058533;28;65121;-60
2021/10/15 01:45:22;;;;;;;;;22.75;19.75;;;;;9.85;63.78;101224.78;5059335;28;45633;-60
2021/10/15 01:47:48;;;;;;;;;23.75;21.00;;;;;9.85;64.19;101218.69;5041467;28;45732;-60
2021/10/15 01:50:13;;;;;;;;;27.00;20.50;;;;;9.83;64.53;101218.81;5058215;28;70084;-60
2021/10/15 01:52:40;;;;;;;;;18.50;18.25;;;;;9.79;64.53;101212.09;5058495;28;63845;-60
2021/10/15 01:55:06;;;;;;;;;23.00;20.00;;;;;9.78;64.57;101215.69;5024781;28;45225;-60
2021/10/15 01:57:32;;;;;;;;;21.75;18.50;;;;;9.76;64.54;101214.97;5040919;28;46562;-59
2021/10/15 01:59:57;;;;;;;;;25.00;21.00;;;;;9.75;64.43;101218.53;5058123;28;69303;-60
2021/10/15 02:02:22;;;;;;;;;22.75;19.50;;;;;9.73;64.29;101217.81;5058701;28;49876;-60
2021/10/15 02:04:48;;;;;;;;;20.00;17.00;;;;;9.73;64.88;101207.31;5058201;28;65248;-60
2021/10/15 02:07:13;;;;;;;;;21.75;18.25;;;;;9.73;64.98;101204.69;5058922;28;46190;-60
2021/10/15 02:09:38;;;;;;;;;19.50;17.50;;;;;9.71;65.03;101203.97;5058272;28;64161;-60
2021/10/15 02:12:04;;;;;;;;;18.25;18.25;;;;;9.69;64.81;101208.50;5040404;28;60332;-60
2021/10/15 02:14:30;;;;;;;;;22.50;20.75;;;;;9.67;64.44;101198.13;5058918;28;45740;-60
2021/10/15 02:16:56;;;;;;;;;20.50;18.50;;;;;9.65;64.37;101200.03;5058767;28;46286;-60
2021/10/15 02:19:21;;;;;;;;;21.25;18.75;;;;;9.66;64.53;101201.69;5058638;28;45827;-60
2021/10/15 02:21:47;;;;;;;;;18.75;17.75;;;;;9.67;64.96;101202.50;5058019;28;64090;-60
2021/10/15 02:24:12;;;;;;;;;24.00;19.25;;;;;9.65;64.53;101203.47;5039646;28;66158;-59
2021/10/15 02:26:37;;;;;;;;;21.25;19.00;;;;;9.67;64.63;101197.28;5057950;28;66891;-60
2021/10/15 02:29:03;;;;;;;;;19.25;16.75;;;;;9.67;64.62;101194.66;5039689;28;71697;-60
2021/10/15 02:31:28;;;;;;;;;20.75;20.75;;;;;9.68;64.72;101198.94;5058700;28;45300;-60
2021/10/15 02:33:54;;;;;;;;;18.00;18.00;;;;;9.67;64.78;101190.25;5058484;28;45171;-60
2021/10/15 02:36:19;;;;;;;;;24.25;19.75;;;;;9.67;64.44;101185.00;5057856;28;54583;-60
2021/10/15 02:38:45;;;;;;;;;24.50;20.00;;;;;9.69;64.39;101184.88;5039273;28;45267;-60
2021/10/15 02:41:10;;;;;;;;;24.00;21.75;;;;;9.69;64.40;101180.47;5057535;28;62088;-60
2021/10/15 02:43:35;;;;;;;;;19.50;17.75;;;;;9.68;64.15;101181.44;5057404;28;66963;-60
2021/10/15 02:46:01;;;;;;;;;21.50;17.75;;;;;9.68;63.79;101185.81;5057218;28;70805;-60
2021/10/15 02:48:26;;;;;;;;;22.50;19.00;;;;;9.67;64.01;101177.13;5057393;28;67320;-60
2021/10/15 02:50:51;;;;;;;;;20.50;17.75;;;;;9.68;64.45;101180.56;5039332;28;61983;-60
2021/10/15 02:53:17;;;;;;;;;21.75;17.25;;;;;9.67;64.43;101185.00;5057855;28;48290;-60
2021/10/15 02:55:42;;;;;;;;;21.25;17.25;;;;;9.64;63.96;101183.44;5058088;28;45449;-60
2021/10/15 02:58:08;;;;;;;;;21.75;18.00;;;;;9.63;64.01;101175.69;5057194;28;68121;-60
2021/10/15 03:00:33;;;;;;;;;16.25;16.25;;;;;9.63;64.26;101171.25;5058022;28;45387;-60
2021/10/15 03:02:59;;;;;;;;;18.00;17.00;;;;;9.62;64.59;101180.06;5057285;28;58608;-60
2021/10/15 03:05:24;;;;;;;;;19.75;18.75;;;;;9.60;64.31;101176.72;5057841;28;45332;-60
2021/10/15 03:07:49;;;;;;;;;22.50;21.00;;;;;9.58;64.20;101177.81;5057492;28;50991;-60
2021/10/15 03:10:15;;;;;;;;;20.25;19.00;;;;;9.55;64.04;101172.78;5057535;28;52803;-60
2021/10/15 03:12:40;;;;;;;;;45.50;36.00;;;;;9.52;63.93;101170.38;5057106;28;61740;-60
2021/10/15 03:15:07;;;;;;;;;50.75;40.50;;;;;9.46;63.78;101172.50;5057491;28;45436;-59
2021/10/15 03:17:32;;;;;;;;;34.50;32.75;;;;;9.43;63.77;101174.53;5057693;28;45323;-60
2021/10/15 03:19:58;;;;;;;;;23.00;21.00;;;;;9.43;63.93;101177.16;5057869;28;45742;-59
2021/10/15 03:22:23;;;;;;;;;18.00;17.50;;;;;9.42;63.75;101178.09;5057401;28;51665;-60
2021/10/15 03:24:49;;;;;;;;;16.50;16.50;;;;;9.41;63.52;101179.06;5056672;28;64102;-60
2021/10/15 03:27:14;;;;;;;;;25.25;21.00;;;;;9.40;63.61;101166.88;5038913;28;45296;-60
2021/10/15 03:29:39;;;;;;;;;22.00;19.50;;;;;9.39;64.15;101167.84;5057660;28;45216;-60
2021/10/15 03:32:05;;;;;;;;;19.75;19.50;;;;;9.37;63.90;101175.81;5056665;28;66010;-60
2021/10/15 03:34:30;;;;;;;;;23.00;18.25;;;;;9.37;64.00;101169.75;5038364;28;73881;-60
2021/10/15 03:36:56;;;;;;;;;16.75;15.50;;;;;9.35;64.46;101169.84;5056364;28;64596;-60
2021/10/15 03:39:21;;;;;;;;;19.25;18.50;;;;;9.33;64.71;101163.88;5056339;28;65132;-60
2021/10/15 03:41:46;;;;;;;;;18.00;15.75;;;;;9.31;64.71;101164.00;5057372;28;45575;-60
2021/10/15 03:44:12;;;;;;;;;19.75;18.25;;;;;9.30;65.06;101162.31;5057107;28;45281;-60
2021/10/15 03:46:37;;;;;;;;;22.25;18.75;;;;;9.30;65.47;101161.47;5057012;28;45366;-60
2021/10/15 03:49:02;;;;;;;;;18.75;18.00;;;;;9.29;65.38;101160.63;5056731;28;54879;-59
2021/10/15 03:51:28;;;;;;;;;22.50;18.75;;;;;9.28;65.05;101153.72;5056486;28;45629;-60
2021/10/15 03:53:53;;;;;;;;;17.75;16.75;;;;;9.29;64.87;101163.25;5056030;28;70589;-60
2021/10/15 03:56:18;;;;;;;;;23.50;19.25;;;;;9.31;64.92;101152.66;5056064;28;71662;-60
2021/10/15 03:58:44;;;;;;;;;21.50;19.25;;;;;9.32;65.59;101157.78;5056435;28;59398;-60
2021/10/15 04:01:09;;;;;;;;;23.50;19.00;;;;;9.32;65.86;101155.19;5056064;28;69821;-60
2021/10/15 04:03:35;;;;;;;;;21.00;20.00;;;;;9.35;65.24;101156.72;5038055;28;65473;-60
2021/10/15 04:06:00;;;;;;;;;26.50;18.50;;;;;9.32;64.74;101155.19;5055825;28;69476;-60
2021/10/15 04:08:25;;;;;;;;;20.50;18.00;;;;;9.32;64.88;101154.31;5056635;28;49803;-60
2021/10/15 04:10:51;;;;;;;;;20.25;17.25;;;;;9.28;64.67;101158.97;5056810;28;45383;-60
2021/10/15 04:13:16;;;;;;;;;23.00;21.50;;;;;9.24;64.35;101149.66;5056684;28;46111;-60
2021/10/15 04:15:42;;;;;;;;;21.50;18.00;;;;;9.25;64.50;101150.50;5056101;28;60557;-60
2021/10/15 04:18:07;;;;;;;;;24.00;21.25;;;;;9.27;64.88;101152.06;5056893;28;45285;-60
2021/10/15 04:20:32;;;;;;;;;18.50;18.00;;;;;9.29;65.17;101150.16;5038843;28;45356;-60
2021/10/15 04:22:58;;;;;;;;;19.50;16.25;;;;;9.29;64.80;101147.53;5056321;28;45619;-60
2021/10/15 04:25:23;;;;;;;;;25.75;21.00;;;;;9.30;65.21;101146.59;5055755;28;69405;-60
2021/10/15 04:27:49;;;;;;;;;26.00;23.00;;;;;9.30;65.35;101146.59;5038002;28;60310;-60
2021/10/15 04:30:14;;;;;;;;;24.00;22.00;;;;;9.29;65.33;101147.53;5056600;28;45201;-60
2021/10/15 04:32:39;;;;;;;;;25.50;24.00;;;;;9.29;65.32;101147.53;5055613;28;68769;-60
2021/10/15 04:35:05;;;;;;;;;26.00;23.50;;;;;9.31;65.26;101147.41;5056421;28;45332;-60
2021/10/15 04:37:30;;;;;;;;;29.75;25.50;;;;;9.32;65.17;101142.06;5037865;28;45291;-60
2021/10/15 04:39:56;;;;;;;;;35.50;32.00;;;;;9.32;65.69;101139.44;5055329;28;69746;-60
2021/10/15 04:42:21;;;;;;;;;44.25;35.75;;;;;9.33;65.70;101135.88;5055565;28;68899;-60
2021/10/15 04:44:47;;;;;;;;;49.50;38.00;;;;;9.35;65.72;101139.22;5055973;28;49318;-60
2021/10/15 04:47:12;;;;;;;;;50.75;38.00;;;;;9.38;65.44;101130.28;5038052;28;45231;-60
2021/10/15 04:49:37;;;;;;;;;32.50;29.75;;;;;9.39;65.36;101133.75;5036963;28;61612;-59
2021/10/15 04:52:03;;;;;;;;;21.75;21.25;;;;;9.39;64.80;101128.50;5054998;28;72931;-60
2021/10/15 04:54:29;;;;;;;;;25.00;20.25;;;;;9.38;64.90;101127.66;5056049;28;45577;-60
2021/10/15 04:56:54;;;;;;;;;27.25;24.25;;;;;9.38;64.88;101125.03;5055608;28;57059;-60
2021/10/15 04:59:19;;;;;;;;;29.75;28.25;;;;;9.34;64.96;101126.19;5055990;28;45541;-60
2021/10/15 05:01:45;;;;;;;;;42.00;35.25;;;;;9.29;64.98;101123.06;5055189;28;65247;-60
2021/10/15 05:04:11;;;;;;;;;36.75;31.75;;;;;9.27;65.04;101117.13;5055196;28;68177;-59
2021/10/15 05:06:37;;;;;;;;;27.25;24.00;;;;;9.23;65.08;101119.13;5055824;28;45414;-60
2021/10/15 05:09:25;;;;;;;;;22.00;21.00;;;;;9.19;64.93;101115.91;5037083;28;61817;-60
2021/10/15 05:11:48;;;;;;;;;28.50;28.00;;;;;9.20;65.12;101111.50;5055967;28;45259;-60
2021/10/15 05:14:13;;;;;;;;;25.75;23.00;;;;;9.20;64.91;101116.72;5055034;28;70172;-60
2021/10/15 05:16:39;;;;;;;;;24.00;21.50;;;;;9.19;64.89;101115.06;5036920;28;67190;-60
2021/10/15 05:19:04;;;;;;;;;25.25;19.25;;;;;9.18;64.76;101113.38;5055888;28;45375;-60
2021/10/15 05:21:30;;;;;;;;;23.75;22.25;;;;;9.15;64.69;101118.84;5054881;28;68386;-60
2021/10/15 05:23:55;;;;;;;;;30.50;23.25;;;;;9.17;65.01;101117.81;5055415;28;45553;-60
2021/10/15 05:26:21;;;;;;;;;26.50;24.75;;;;;9.14;64.84;101117.19;5056163;28;45619;-60
2021/10/15 05:28:46;;;;;;;;;50.75;40.75;;;;;9.13;64.95;101105.03;5055738;28;45473;-60
2021/10/15 05:31:11;;;;;;;;;61.50;50.25;;;;;9.12;65.09;101106.81;5054515;28;71681;-60
2021/10/15 05:33:37;;;;;;;;;48.75;40.25;;;;;9.09;65.09;101109.66;5036617;28;68458;-60
2021/10/15 05:36:02;;;;;;;;;50.75;41.75;;;;;9.07;65.44;101101.06;5036965;28;60987;-60
2021/10/15 05:38:28;;;;;;;;;55.75;44.25;;;;;9.05;65.35;101108.22;5055488;28;45553;-60
2021/10/15 05:40:53;;;;;;;;;34.75;32.00;;;;;9.05;65.42;101116.06;5036164;28;70327;-60
2021/10/15 05:43:19;;;;;;;;;33.25;30.50;;;;;9.02;65.44;101109.25;5054601;28;64063;-60
2021/10/15 05:45:45;;;;;;;;;34.50;28.75;;;;;9.04;65.51;101117.84;5055635;28;45380;-59
2021/10/15 05:48:10;;;;;;;;;43.50;35.25;;;;;9.02;65.55;101117.13;5055246;28;45269;-60
2021/10/15 05:50:36;;;;;;;;;37.50;33.00;;;;;9.01;65.56;101120.69;5054631;28;66787;-60
2021/10/15 05:53:07;;;;;;;;;43.25;36.75;;;;;9.01;65.45;101112.81;5037308;28;45422;-60
2021/10/15 06:01:07;;;;;;;;;36.50;30.75;;;;;8.95;66.23;101104.59;4992944;28;45518;-60
2021/10/15 06:03:32;;;;;;;;;31.25;27.50;;;;;8.92;66.31;101105.66;4993329;28;45311;-60
2021/10/15 06:14:28;;;;;;;;;38.75;35.25;;;;;8.87;66.46;101124.31;4995267;28;46078;-60
2021/10/15 06:16:55;;;;;;;;;38.00;33.00;;;;;8.87;66.43;101126.94;4996557;28;45335;-60
2021/10/15 06:19:23;;;;;;;;;27.50;23.25;;;;;8.88;66.66;101125.16;5026328;28;45252;-60
2021/10/15 06:21:49;;;;;;;;;27.50;25.25;;;;;8.90;66.66;101139.00;5058232;28;46307;-60
2021/10/15 06:24:14;;;;;;;;;30.00;26.00;;;;;8.90;66.63;101139.00;5057778;28;51396;-60
2021/10/15 06:26:40;;;;;;;;;26.75;23.50;;;;;8.90;66.97;101145.06;5058294;28;45237;-60
2021/10/15 06:29:05;;;;;;;;;27.00;24.25;;;;;8.93;66.88;101144.03;5039508;28;63018;-60
2021/10/15 06:31:30;;;;;;;;;28.75;25.50;;;;;8.94;67.05;101140.47;5057517;28;67187;-60
2021/10/15 06:33:56;;;;;;;;;28.50;26.75;;;;;8.93;67.04;101145.78;5058304;28;45289;-60
2021/10/15 06:36:21;;;;;;;;;30.75;26.00;;;;;8.91;66.85;101144.13;5040243;28;45272;-60
2021/10/15 06:38:47;;;;;;;;;31.25;23.50;;;;;8.91;66.73;101140.69;5058280;28;45333;-60
2021/10/15 06:41:12;;;;;;;;;30.25;25.00;;;;;8.93;66.63;101143.16;5058215;28;45571;-60
2021/10/15 06:43:38;;;;;;;;;31.25;25.25;;;;;8.94;66.87;101142.22;5058343;28;45395;-60
2021/10/15 06:46:03;;;;;;;;;27.50;25.25;;;;;8.95;66.75;101139.50;5058456;28;45462;-60
2021/10/15 06:48:28;;;;;;;;;26.25;23.00;;;;;8.98;67.33;101138.44;5058277;28;45561;-60
2021/10/15 06:50:54;;;;;;;;;26.75;23.25;;;;;9.00;67.39;101133.91;5023431;28;46445;-60
2021/10/15 06:53:19;;;;;;;;;27.50;23.75;;;;;9.02;67.78;101137.28;5039180;28;71002;-61
2021/10/15 06:55:45;;;;;;;;;27.75;25.75;;;;;9.04;67.42;101140.63;5058178;28;45412;-60
2021/10/15 06:58:10;;;;;;;;;31.75;24.00;;;;;9.06;67.08;101138.72;5039311;28;66958;-60
2021/10/15 07:00:35;;;;;;;;;30.50;25.75;;;;;9.08;66.99;101139.44;5057876;28;45582;-60
2021/10/15 07:03:01;;;;;;;;;28.50;26.50;;;;;9.12;66.83;101134.81;5057900;28;45367;-60
2021/10/15 07:05:27;;;;;;;;;30.00;27.50;;;;;9.14;67.07;101138.16;5057211;28;66857;-60
2021/10/15 07:07:52;;;;;;;;;29.75;27.00;;;;;9.16;67.18;101142.34;5039838;28;45613;-61
2021/10/15 07:10:18;;;;;;;;;28.75;26.50;;;;;9.21;67.13;101144.63;5040112;28;45484;-60
2021/10/15 07:12:44;;;;;;;;;30.50;28.50;;;;;9.23;67.02;101144.53;5056690;28;45283;-60
2021/10/15 07:15:14;;;;;;;;;34.25;30.50;;;;;9.27;67.07;101145.97;5057907;28;45285;-60
2021/10/15 07:17:39;;;;;;;;;37.25;29.50;;;;;9.29;66.88;101151.91;5023896;28;45478;-60
2021/10/15 07:20:05;;;;;;;;;29.00;25.25;;;;;9.31;67.40;101160.50;5038347;28;75313;-60
2021/10/15 07:22:31;;;;;;;;;24.50;23.00;;;;;9.34;67.13;101166.38;5039629;28;45922;-60
2021/10/15 07:24:56;;;;;;;;;33.25;27.50;;;;;9.38;66.91;101160.91;5056575;28;45399;-60
2021/10/15 07:27:21;;;;;;;;;33.75;29.50;;;;;9.44;67.06;101168.34;5055607;28;47583;-60
2021/10/15 07:29:47;;;;;;;;;33.75;29.25;;;;;9.46;67.08;101166.44;5039388;28;46446;-60
2021/10/15 07:32:12;;;;;;;;;33.25;28.75;;;;;9.47;67.20;101157.63;5057183;28;50430;-60
2021/10/15 07:34:38;;;;;;;;;33.25;32.00;;;;;9.48;67.29;101161.91;5037984;28;64640;-60
2021/10/15 07:37:04;;;;;;;;;34.50;28.50;;;;;9.51;67.11;101161.69;5057386;28;45602;-60
2021/10/15 07:39:29;;;;;;;;;32.25;28.25;;;;;9.53;67.25;101170.28;5039517;28;46537;-60
2021/10/15 07:41:54;;;;;;;;;31.25;28.75;;;;;9.56;67.08;101172.66;5056750;28;64725;-60
2021/10/15 07:44:20;;;;;;;;;32.25;29.25;;;;;9.60;67.03;101175.91;5056169;28;60633;-60
2021/10/15 07:46:46;;;;;;;;;30.75;28.00;;;;;9.64;67.12;101175.56;5037593;28;45436;-60
2021/10/15 07:49:11;;;;;;;;;42.50;33.25;;;;;9.69;67.04;101179.63;5054972;28;46248;-61
2021/10/15 07:51:36;;;;;;;;;35.00;32.50;;;;;9.74;66.86;101182.75;5056141;28;45427;-60
2021/10/15 07:54:02;;;;;;;;;33.25;27.75;;;;;9.76;67.01;101181.69;5038329;28;45628;-60
2021/10/15 07:56:27;;;;;;;;;42.25;33.25;;;;;9.83;66.72;101181.22;5055859;28;45344;-60
2021/10/15 07:58:53;;;;;;;;;42.25;34.25;;;;;9.90;66.52;101183.28;5037886;28;45449;-60
2021/10/15 08:01:18;;;;;;;;;44.00;34.00;;;;;10.00;66.83;101175.53;5055922;28;45465;-60
2021/10/15 08:03:44;;;;;;;;;38.50;31.00;;;;;10.13;66.64;101177.22;5055452;28;54101;-60
2021/10/15 08:06:09;;;;;;;;;40.75;34.25;;;;;10.31;66.53;101182.84;5054894;28;63925;-60
2021/10/15 08:08:35;;;;;;;;;42.25;33.75;;;;;10.50;66.52;101175.25;5055476;28;53386;-60
2021/10/15 08:11:00;;;;;;;;;44.25;36.00;;;;;10.73;65.53;101177.03;5037822;28;45416;-60
2021/10/15 08:13:26;;;;;;;;;42.25;35.25;;;;;10.93;65.36;101170.19;5056044;28;45481;-60
2021/10/15 08:15:51;;;;;;;;;47.00;34.75;;;;;11.16;65.02;101172.75;5036859;28;55790;-60
2021/10/15 08:18:16;;;;;;;;;45.75;35.00;;;;;11.39;65.23;101165.63;5054585;28;71661;-60
2021/10/15 08:20:42;;;;;;;;;45.00;34.25;;;;;11.63;64.44;101175.94;5054986;28;61793;-60
2021/10/15 08:23:07;;;;;;;;;50.00;37.25;;;;;11.85;63.54;101168.84;5055648;28;45471;-60
2021/10/15 08:25:33;;;;;;;;;47.75;38.00;;;;;12.07;63.58;101172.34;5055738;28;45374;-60
2021/10/15 08:27:58;;;;;;;;;49.00;38.25;;;;;12.26;63.61;101158.44;5037015;28;46478;-60
2021/10/15 08:30:24;;;;;;;;;50.50;39.75;;;;;12.44;62.96;101161.28;5037001;28;45474;-60
2021/10/15 08:32:49;;;;;;;;;50.75;38.00;;;;;12.61;62.69;101171.22;5037560;28;45236;-60
2021/10/15 08:35:15;;;;;;;;;49.25;40.25;;;;;12.78;62.16;101174.16;5037063;28;45466;-60
2021/10/15 08:37:40;;;;;;;;;54.50;43.00;;;;;12.94;61.72;101170.16;5054641;28;45733;-60
2021/10/15 08:40:07;;;;;;;;;53.50;40.50;;;;;13.05;61.69;101173.50;5055487;28;45306;-60
2021/10/15 08:42:32;;;;;;;;;51.00;42.00;;;;;13.15;61.18;101173.56;5037516;28;45456;-61
2021/10/15 08:44:58;;;;;;;;;50.25;39.25;;;;;13.25;60.77;101178.81;5054958;28;45413;-60
2021/10/15 08:47:23;;;;;;;;;53.00;41.25;;;;;13.34;61.05;101180.63;5054849;28;49462;-60
2021/10/15 08:49:48;;;;;;;;;49.00;39.00;;;;;13.44;60.65;101188.59;5019911;28;61858;-60
2021/10/15 08:52:14;;;;;;;;;48.25;39.50;;;;;13.55;60.50;101189.41;5054517;28;65100;-60
2021/10/15 08:54:43;;;;;;;;;49.75;40.25;;;;;13.63;59.56;101181.63;5037153;28;45381;-60
2021/10/15 08:57:09;;;;;;;;;48.25;39.75;;;;;13.73;59.45;101174.53;5036958;28;46395;-61
2021/10/15 08:59:45;;;;;;;;;48.25;38.50;;;;;13.83;59.40;101176.31;5036912;28;45470;-61
2021/10/15 09:02:12;;;;;;;;;53.25;40.25;;;;;13.92;58.94;101188.69;5054983;28;45234;-60
2021/10/15 09:04:53;;;;;;;;;50.50;41.00;;;;;14.02;58.69;101186.84;5055186;28;45476;-60
2021/10/15 09:07:22;;;;;;;;;50.50;42.25;;;;;14.14;58.57;101184.06;5053759;28;46602;-61
2021/10/15 09:10:11;;;;;;;;;48.75;39.25;;;;;14.27;58.24;101192.50;5055010;28;45463;-61
2021/10/15 09:12:46;;;;;;;;;56.00;44.00;;;;;14.41;58.24;101183.25;5055124;28;45493;-61
2021/10/15 09:15:12;;;;;;;;;49.75;41.00;;;;;14.53;57.70;101187.38;5051039;28;45544;-60
2021/10/15 09:17:50;;;;;;;;;50.50;38.25;;;;;14.68;57.83;101185.09;5054592;28;46208;-60
2021/10/15 09:20:27;;;;;;;;;49.00;40.00;;;;;14.83;57.45;101189.91;5054535;28;45929;-61
2021/10/15 09:22:52;;;;;;;;;44.75;35.75;;;;;15.02;57.20;101196.06;5036615;28;45539;-61
2021/10/15 09:25:17;;;;;;;;;40.25;33.25;;;;;15.20;56.66;101199.56;5019135;28;57605;-61
2021/10/15 09:27:47;;;;;;;;;45.75;36.00;;;;;15.37;56.87;101192.59;5053732;28;67769;-61
2021/10/15 09:30:17;;;;;;;;;48.25;37.50;;;;;15.53;56.13;101193.75;5054560;28;45339;-61
2021/10/15 09:33:01;;;;;;;;;48.75;38.75;;;;;15.65;55.97;101197.78;5054701;28;45530;-60
2021/10/15 09:35:28;;;;;;;;;47.75;37.50;;;;;15.76;56.00;101204.69;5036217;28;45543;-61
2021/10/15 09:38:00;;;;;;;;;43.00;37.75;;;;;15.88;55.79;101205.31;5054134;28;45578;-61
2021/10/15 09:40:26;;;;;;;;;49.75;37.75;;;;;15.98;55.14;101202.53;5036033;28;45450;-61
2021/10/15 09:42:56;;;;;;;;;43.00;34.75;;;;;16.06;54.92;101207.91;5036318;28;45511;-61
2021/10/15 09:45:23;;;;;;;;;47.25;37.25;;;;;16.11;55.31;101208.25;5054332;28;45369;-61
2021/10/15 09:47:49;;;;;;;;;41.75;35.50;;;;;16.18;55.27;101211.13;5054855;28;46303;-61
2021/10/15 09:50:16;;;;;;;;;46.50;36.25;;;;;16.26;55.88;101207.69;5058062;28;45361;-61
2021/10/15 09:52:42;;;;;;;;;32.50;29.75;;;;;16.31;55.59;101208.88;5057832;28;45477;-61
2021/10/15 09:55:33;;;;;;;;;33.50;29.00;;;;;16.39;53.96;101207.25;5039617;28;45544;-61
2021/10/15 09:58:19;;;;;;;;;27.00;26.00;;;;;16.50;52.25;101203.50;5057585;28;45509;-61
2021/10/15 10:00:45;;;;;;;;;36.75;29.00;;;;;16.57;51.55;101205.38;5055868;28;45539;-61
2021/10/15 10:03:11;;;;;;;;;32.00;30.00;;;;;16.63;51.19;101195.94;5039997;28;45471;-61
2021/10/15 10:05:36;;;;;;;;;36.25;31.50;;;;;16.71;51.16;101209.22;5038967;28;53565;-61
2021/10/15 10:08:02;;;;;;;;;31.50;28.00;;;;;16.79;50.82;101215.56;5057629;28;46117;-61
2021/10/15 10:10:32;;;;;;;;;34.50;28.00;;;;;16.90;50.12;101212.63;5057282;28;45225;-61
2021/10/15 10:12:58;;;;;;;;;35.25;32.25;;;;;16.98;50.17;101214.50;5057270;28;45439;-61
2021/10/15 10:15:25;;;;;;;;;30.50;27.75;;;;;17.05;50.15;101211.00;5057167;28;45414;-61
2021/10/15 10:17:54;;;;;;;;;31.00;26.25;;;;;17.18;49.94;101204.41;5039671;28;45505;-61
2021/10/15 10:20:28;;;;;;;;;29.25;28.25;;;;;17.33;49.97;101207.25;5056870;28;45485;-61
2021/10/15 10:23:05;;;;;;;;;32.50;27.75;;;;;17.44;49.75;101212.25;5057005;28;45444;-61
2021/10/15 10:25:31;;;;;;;;;33.00;25.75;;;;;17.55;50.31;101216.41;5057177;28;45539;-61
2021/10/15 10:27:57;;;;;;;;;29.50;27.25;;;;;17.63;50.42;101219.06;5038654;28;46683;-60
2021/10/15 10:30:36;;;;;;;;;30.00;29.00;;;;;17.69;49.88;101212.28;5038826;28;45815;-61
2021/10/15 10:33:02;;;;;;;;;28.00;27.25;;;;;17.73;49.27;101210.09;5055853;28;45454;-61
2021/10/15 10:35:28;;;;;;;;;28.00;24.50;;;;;17.74;48.73;101206.44;5038662;28;45716;-61
2021/10/15 10:38:18;;;;;;;;;27.00;24.00;;;;;17.77;49.21;101211.41;5056338;28;45550;-61
2021/10/15 10:41:01;;;;;;;;;28.50;24.00;;;;;17.82;49.10;101206.44;5054309;28;45363;-61
2021/10/15 10:43:31;;;;;;;;;27.50;25.25;;;;;17.86;49.90;101207.75;5056787;28;45430;-61
2021/10/15 10:46:08;;;;;;;;;30.25;25.75;;;;;17.93;49.38;101213.22;5037986;28;45594;-61
2021/10/15 10:48:49;;;;;;;;;29.00;24.25;;;;;17.99;49.46;101209.09;5056460;28;45472;-61
2021/10/15 10:51:23;;;;;;;;;29.00;27.00;;;;;18.04;49.59;101199.63;5054344;28;45815;-61
2021/10/15 10:54:04;;;;;;;;;30.00;24.00;;;;;18.08;49.40;101203.59;5054900;28;45451;-60
2021/10/15 10:56:38;;;;;;;;;25.25;22.75;;;;;18.13;49.63;101205.75;5056139;28;45513;-61
2021/10/15 10:59:16;;;;;;;;;26.50;24.00;;;;;18.17;49.79;101203.59;5052150;28;46529;-61
2021/10/15 11:01:49;;;;;;;;;20.00;19.50;;;;;18.17;49.95;101204.41;5052581;28;45397;-61
2021/10/15 11:04:31;;;;;;;;;29.50;24.25;;;;;18.21;49.53;101207.56;5037887;28;45503;-61
2021/10/15 11:07:00;;;;;;;;;25.25;25.25;;;;;18.26;49.19;101207.91;5037385;28;45372;-61
2021/10/15 11:09:52;;;;;;;;;28.25;25.50;;;;;18.38;48.51;101205.69;5053989;28;47643;-61
2021/10/15 11:12:22;;;;;;;;;30.75;25.75;;;;;18.48;48.72;101198.34;5054517;28;45989;-62
2021/10/15 11:14:52;;;;;;;;;26.75;26.00;;;;;18.60;48.59;101200.59;5022042;28;45494;-62
2021/10/15 11:17:18;;;;;;;;;27.00;21.00;;;;;18.70;48.32;101209.22;5055077;28;45237;-61
2021/10/15 11:19:43;;;;;;;;;30.25;23.50;;;;;18.84;48.18;101211.16;5038478;28;45470;-61
2021/10/15 11:22:08;;;;;;;;;27.25;24.00;;;;;19.00;47.96;101208.59;5038276;28;45309;-61
2021/10/15 11:24:34;;;;;;;;;29.25;23.00;;;;;19.17;47.67;101206.66;5056341;28;45485;-61
2021/10/15 11:26:59;;;;;;;;;22.75;21.25;;;;;19.33;47.64;101206.56;5056195;28;45594;-61